sensor_id;sensor_type;location;lat;lon;timestamp;P1;durP1;ratioP1;P2;durP2;ratioP2
6113;SDS011;3087;48.392;10.836;2023-06-14T00:01:23;4.15;;;3.60;;
6113;SDS011;3087;48.392;10.836;2023-06-14T00:03:50;6.13;;;5.20;;
6113;SDS011;3087;48.392;10.836;2023-06-14T00:06:15;9.23;;;5.07;;
6113;SDS011;3087;48.392;10.836;2023-06-14T00:08:42;5.30;;;4.50;;
6113;SDS011;3087;48.392;10.836;2023-06-14T00:11:07;5.50;;;4.68;;
6113;SDS011;3087;48.392;10.836;2023-06-14T00:13:33;6.63;;;4.55;;
6113;SDS011;3087;48.392;10.836;2023-06-14T00:15:59;7.80;;;4.50;;
6113;SDS011;3087;48.392;10.836;2023-06-14T00:18:24;5.38;;;4.25;;
6113;SDS011;3087;48.392;10.836;2023-06-14T00:20:54;7.20;;;4.68;;
6113;SDS011;3087;48.392;10.836;2023-06-14T00:23:20;7.15;;;4.93;;
6113;SDS011;3087;48.392;10.836;2023-06-14T00:25:47;5.53;;;4.53;;
6113;SDS011;3087;48.392;10.836;2023-06-14T00:28:12;5.20;;;4.32;;
6113;SDS011;3087;48.392;10.836;2023-06-14T00:30:38;8.73;;;4.93;;
6113;SDS011;3087;48.392;10.836;2023-06-14T00:33:04;5.13;;;4.45;;
6113;SDS011;3087;48.392;10.836;2023-06-14T00:35:30;5.28;;;4.50;;
6113;SDS011;3087;48.392;10.836;2023-06-14T00:37:55;7.13;;;5.28;;
6113;SDS011;3087;48.392;10.836;2023-06-14T00:40:21;6.53;;;4.72;;
6113;SDS011;3087;48.392;10.836;2023-06-14T00:42:47;6.50;;;4.45;;
6113;SDS011;3087;48.392;10.836;2023-06-14T00:45:13;4.85;;;4.35;;
6113;SDS011;3087;48.392;10.836;2023-06-14T00:47:39;5.90;;;4.82;;
6113;SDS011;3087;48.392;10.836;2023-06-14T00:50:07;8.75;;;4.18;;
6113;SDS011;3087;48.392;10.836;2023-06-14T00:52:33;5.95;;;5.10;;
6113;SDS011;3087;48.392;10.836;2023-06-14T00:54:59;6.32;;;4.80;;
6113;SDS011;3087;48.392;10.836;2023-06-14T00:57:26;9.02;;;4.35;;
6113;SDS011;3087;48.392;10.836;2023-06-14T00:59:52;4.65;;;4.20;;
6113;SDS011;3087;48.392;10.836;2023-06-14T01:02:18;7.75;;;5.22;;
6113;SDS011;3087;48.392;10.836;2023-06-14T01:04:45;5.25;;;4.32;;
6113;SDS011;3087;48.392;10.836;2023-06-14T01:08:01;5.95;;;5.00;;
6113;SDS011;3087;48.392;10.836;2023-06-14T01:13:43;5.03;;;4.32;;
6113;SDS011;3087;48.392;10.836;2023-06-14T01:15:54;7.88;;;4.75;;
6113;SDS011;3087;48.392;10.836;2023-06-14T01:18:21;6.57;;;5.22;;
6113;SDS011;3087;48.392;10.836;2023-06-14T01:20:50;6.25;;;4.40;;
6113;SDS011;3087;48.392;10.836;2023-06-14T01:23:20;10.07;;;5.25;;
6113;SDS011;3087;48.392;10.836;2023-06-14T01:25:47;6.95;;;5.22;;
6113;SDS011;3087;48.392;10.836;2023-06-14T01:28:17;7.53;;;5.55;;
6113;SDS011;3087;48.392;10.836;2023-06-14T01:30:46;8.68;;;5.50;;
6113;SDS011;3087;48.392;10.836;2023-06-14T01:33:21;8.07;;;5.75;;
6113;SDS011;3087;48.392;10.836;2023-06-14T01:35:49;8.57;;;6.28;;
6113;SDS011;3087;48.392;10.836;2023-06-14T01:38:17;7.85;;;7.05;;
6113;SDS011;3087;48.392;10.836;2023-06-14T01:40:44;9.48;;;6.78;;
6113;SDS011;3087;48.392;10.836;2023-06-14T01:43:14;9.57;;;6.72;;
6113;SDS011;3087;48.392;10.836;2023-06-14T01:45:44;7.82;;;6.68;;
6113;SDS011;3087;48.392;10.836;2023-06-14T01:48:12;11.30;;;6.53;;
6113;SDS011;3087;48.392;10.836;2023-06-14T01:50:38;8.13;;;5.90;;
6113;SDS011;3087;48.392;10.836;2023-06-14T01:53:06;9.85;;;6.15;;
6113;SDS011;3087;48.392;10.836;2023-06-14T01:55:33;7.03;;;5.68;;
6113;SDS011;3087;48.392;10.836;2023-06-14T01:58:02;10.50;;;5.63;;
6113;SDS011;3087;48.392;10.836;2023-06-14T02:00:28;7.07;;;5.93;;
6113;SDS011;3087;48.392;10.836;2023-06-14T02:02:54;5.95;;;5.35;;
6113;SDS011;3087;48.392;10.836;2023-06-14T02:05:20;6.53;;;5.82;;
6113;SDS011;3087;48.392;10.836;2023-06-14T02:07:46;6.13;;;5.45;;
6113;SDS011;3087;48.392;10.836;2023-06-14T02:10:12;10.25;;;5.50;;
6113;SDS011;3087;48.392;10.836;2023-06-14T02:12:38;5.88;;;5.28;;
6113;SDS011;3087;48.392;10.836;2023-06-14T02:15:04;5.95;;;5.35;;
6113;SDS011;3087;48.392;10.836;2023-06-14T02:17:31;6.70;;;5.38;;
6113;SDS011;3087;48.392;10.836;2023-06-14T02:19:56;6.05;;;5.13;;
6113;SDS011;3087;48.392;10.836;2023-06-14T02:22:22;7.03;;;5.35;;
6113;SDS011;3087;48.392;10.836;2023-06-14T02:24:48;7.07;;;5.38;;
6113;SDS011;3087;48.392;10.836;2023-06-14T02:27:13;7.07;;;5.55;;
6113;SDS011;3087;48.392;10.836;2023-06-14T02:29:39;7.32;;;5.18;;
6113;SDS011;3087;48.392;10.836;2023-06-14T02:32:05;8.20;;;5.85;;
6113;SDS011;3087;48.392;10.836;2023-06-14T02:34:32;5.22;;;4.70;;
6113;SDS011;3087;48.392;10.836;2023-06-14T02:36:58;6.90;;;5.22;;
6113;SDS011;3087;48.392;10.836;2023-06-14T02:39:24;8.52;;;5.60;;
6113;SDS011;3087;48.392;10.836;2023-06-14T02:41:50;6.97;;;4.90;;
6113;SDS011;3087;48.392;10.836;2023-06-14T02:44:19;7.35;;;5.20;;
6113;SDS011;3087;48.392;10.836;2023-06-14T02:46:44;6.88;;;5.47;;
6113;SDS011;3087;48.392;10.836;2023-06-14T02:49:10;6.90;;;4.93;;
6113;SDS011;3087;48.392;10.836;2023-06-14T02:51:36;6.43;;;5.70;;
6113;SDS011;3087;48.392;10.836;2023-06-14T02:54:02;7.10;;;5.32;;
6113;SDS011;3087;48.392;10.836;2023-06-14T02:56:28;9.38;;;5.15;;
6113;SDS011;3087;48.392;10.836;2023-06-14T02:58:54;6.40;;;5.13;;
6113;SDS011;3087;48.392;10.836;2023-06-14T03:01:20;7.07;;;5.20;;
6113;SDS011;3087;48.392;10.836;2023-06-14T03:03:46;7.88;;;5.38;;
6113;SDS011;3087;48.392;10.836;2023-06-14T03:06:12;9.35;;;5.38;;
6113;SDS011;3087;48.392;10.836;2023-06-14T03:08:39;8.02;;;5.18;;
6113;SDS011;3087;48.392;10.836;2023-06-14T03:11:06;6.75;;;5.53;;
6113;SDS011;3087;48.392;10.836;2023-06-14T03:13:33;5.50;;;4.55;;
6113;SDS011;3087;48.392;10.836;2023-06-14T03:16:02;8.25;;;5.50;;
6113;SDS011;3087;48.392;10.836;2023-06-14T03:18:31;8.02;;;5.03;;
6113;SDS011;3087;48.392;10.836;2023-06-14T03:21:00;8.48;;;4.55;;
6113;SDS011;3087;48.392;10.836;2023-06-14T03:23:26;8.07;;;5.35;;
6113;SDS011;3087;48.392;10.836;2023-06-14T03:25:52;6.93;;;5.68;;
6113;SDS011;3087;48.392;10.836;2023-06-14T03:28:17;6.90;;;4.82;;
6113;SDS011;3087;48.392;10.836;2023-06-14T03:30:43;7.03;;;5.15;;
6113;SDS011;3087;48.392;10.836;2023-06-14T03:33:08;5.57;;;4.88;;
6113;SDS011;3087;48.392;10.836;2023-06-14T03:35:34;5.88;;;4.95;;
6113;SDS011;3087;48.392;10.836;2023-06-14T03:38:00;6.93;;;4.90;;
6113;SDS011;3087;48.392;10.836;2023-06-14T03:40:25;7.63;;;5.55;;
6113;SDS011;3087;48.392;10.836;2023-06-14T03:42:53;8.25;;;5.55;;
6113;SDS011;3087;48.392;10.836;2023-06-14T03:45:19;9.02;;;5.43;;
6113;SDS011;3087;48.392;10.836;2023-06-14T03:47:45;9.48;;;5.13;;
6113;SDS011;3087;48.392;10.836;2023-06-14T03:50:11;8.77;;;5.25;;
6113;SDS011;3087;48.392;10.836;2023-06-14T03:52:37;6.20;;;5.53;;
6113;SDS011;3087;48.392;10.836;2023-06-14T03:55:03;7.28;;;5.70;;
6113;SDS011;3087;48.392;10.836;2023-06-14T03:57:29;9.85;;;5.55;;
6113;SDS011;3087;48.392;10.836;2023-06-14T03:59:55;7.22;;;5.97;;
6113;SDS011;3087;48.392;10.836;2023-06-14T04:02:21;8.80;;;5.88;;
6113;SDS011;3087;48.392;10.836;2023-06-14T04:04:47;7.95;;;5.68;;
6113;SDS011;3087;48.392;10.836;2023-06-14T04:07:14;8.60;;;5.80;;
6113;SDS011;3087;48.392;10.836;2023-06-14T04:09:40;5.82;;;5.22;;
6113;SDS011;3087;48.392;10.836;2023-06-14T04:12:06;9.18;;;5.78;;
6113;SDS011;3087;48.392;10.836;2023-06-14T04:14:34;8.52;;;5.18;;
6113;SDS011;3087;48.392;10.836;2023-06-14T04:17:00;8.38;;;5.38;;
6113;SDS011;3087;48.392;10.836;2023-06-14T04:19:25;9.98;;;5.40;;
6113;SDS011;3087;48.392;10.836;2023-06-14T04:21:51;7.22;;;5.15;;
6113;SDS011;3087;48.392;10.836;2023-06-14T04:24:17;7.25;;;5.63;;
6113;SDS011;3087;48.392;10.836;2023-06-14T04:26:43;8.77;;;5.53;;
6113;SDS011;3087;48.392;10.836;2023-06-14T04:29:12;9.48;;;6.13;;
6113;SDS011;3087;48.392;10.836;2023-06-14T04:31:41;6.95;;;5.35;;
6113;SDS011;3087;48.392;10.836;2023-06-14T04:34:07;7.30;;;5.63;;
6113;SDS011;3087;48.392;10.836;2023-06-14T04:36:33;7.32;;;5.90;;
6113;SDS011;3087;48.392;10.836;2023-06-14T04:39:01;7.60;;;5.65;;
6113;SDS011;3087;48.392;10.836;2023-06-14T04:41:29;8.18;;;6.07;;
6113;SDS011;3087;48.392;10.836;2023-06-14T04:43:56;15.45;;;6.72;;
6113;SDS011;3087;48.392;10.836;2023-06-14T04:46:26;13.13;;;6.50;;
6113;SDS011;3087;48.392;10.836;2023-06-14T04:48:53;16.13;;;8.10;;
6113;SDS011;3087;48.392;10.836;2023-06-14T04:51:19;10.57;;;7.50;;
6113;SDS011;3087;48.392;10.836;2023-06-14T04:53:47;11.48;;;7.93;;
6113;SDS011;3087;48.392;10.836;2023-06-14T04:56:14;10.48;;;6.60;;
6113;SDS011;3087;48.392;10.836;2023-06-14T04:58:41;10.60;;;5.63;;
6113;SDS011;3087;48.392;10.836;2023-06-14T05:01:08;13.40;;;6.45;;
6113;SDS011;3087;48.392;10.836;2023-06-14T05:03:34;9.27;;;6.47;;
6113;SDS011;3087;48.392;10.836;2023-06-14T05:06:00;11.45;;;6.68;;
6113;SDS011;3087;48.392;10.836;2023-06-14T05:08:25;12.18;;;6.40;;
6113;SDS011;3087;48.392;10.836;2023-06-14T05:10:51;10.13;;;5.88;;
6113;SDS011;3087;48.392;10.836;2023-06-14T05:13:18;11.60;;;6.32;;
6113;SDS011;3087;48.392;10.836;2023-06-14T05:15:43;10.68;;;6.05;;
6113;SDS011;3087;48.392;10.836;2023-06-14T05:18:09;13.93;;;7.30;;
6113;SDS011;3087;48.392;10.836;2023-06-14T05:20:35;9.95;;;6.40;;
6113;SDS011;3087;48.392;10.836;2023-06-14T05:23:02;9.65;;;6.03;;
6113;SDS011;3087;48.392;10.836;2023-06-14T05:25:28;11.73;;;6.47;;
6113;SDS011;3087;48.392;10.836;2023-06-14T05:27:54;10.30;;;6.32;;
6113;SDS011;3087;48.392;10.836;2023-06-14T05:30:19;20.20;;;6.05;;
6113;SDS011;3087;48.392;10.836;2023-06-14T05:32:45;12.82;;;6.10;;
6113;SDS011;3087;48.392;10.836;2023-06-14T05:35:11;11.38;;;6.38;;
6113;SDS011;3087;48.392;10.836;2023-06-14T05:37:36;14.88;;;6.20;;
6113;SDS011;3087;48.392;10.836;2023-06-14T05:40:02;13.00;;;6.45;;
6113;SDS011;3087;48.392;10.836;2023-06-14T05:42:32;15.32;;;6.88;;
6113;SDS011;3087;48.392;10.836;2023-06-14T05:44:58;10.95;;;6.60;;
6113;SDS011;3087;48.392;10.836;2023-06-14T05:47:24;14.95;;;6.00;;
6113;SDS011;3087;48.392;10.836;2023-06-14T05:49:50;14.05;;;6.03;;
6113;SDS011;3087;48.392;10.836;2023-06-14T05:52:16;13.48;;;6.10;;
6113;SDS011;3087;48.392;10.836;2023-06-14T05:54:41;7.60;;;5.20;;
6113;SDS011;3087;48.392;10.836;2023-06-14T05:57:07;9.73;;;5.50;;
6113;SDS011;3087;48.392;10.836;2023-06-14T05:59:32;7.13;;;5.40;;
6113;SDS011;3087;48.392;10.836;2023-06-14T06:01:58;9.93;;;5.88;;
6113;SDS011;3087;48.392;10.836;2023-06-14T06:04:24;6.45;;;5.28;;
6113;SDS011;3087;48.392;10.836;2023-06-14T06:06:50;5.97;;;5.38;;
6113;SDS011;3087;48.392;10.836;2023-06-14T06:09:16;6.82;;;5.50;;
6113;SDS011;3087;48.392;10.836;2023-06-14T06:11:41;7.93;;;5.05;;
6113;SDS011;3087;48.392;10.836;2023-06-14T06:14:07;7.75;;;4.63;;
6113;SDS011;3087;48.392;10.836;2023-06-14T06:16:32;10.32;;;6.05;;
6113;SDS011;3087;48.392;10.836;2023-06-14T06:18:58;7.35;;;5.35;;
6113;SDS011;3087;48.392;10.836;2023-06-14T06:21:24;7.22;;;4.80;;
6113;SDS011;3087;48.392;10.836;2023-06-14T06:23:50;7.50;;;5.95;;
6113;SDS011;3087;48.392;10.836;2023-06-14T06:26:15;12.65;;;5.85;;
6113;SDS011;3087;48.392;10.836;2023-06-14T06:28:41;8.73;;;5.55;;
6113;SDS011;3087;48.392;10.836;2023-06-14T06:31:06;6.38;;;4.88;;
6113;SDS011;3087;48.392;10.836;2023-06-14T06:33:32;8.48;;;5.10;;
6113;SDS011;3087;48.392;10.836;2023-06-14T06:35:57;7.20;;;5.03;;
6113;SDS011;3087;48.392;10.836;2023-06-14T06:38:23;8.68;;;5.07;;
6113;SDS011;3087;48.392;10.836;2023-06-14T06:40:48;6.78;;;4.90;;
6113;SDS011;3087;48.392;10.836;2023-06-14T06:43:14;6.05;;;4.53;;
6113;SDS011;3087;48.392;10.836;2023-06-14T06:45:42;8.88;;;5.57;;
6113;SDS011;3087;48.392;10.836;2023-06-14T06:48:07;10.57;;;5.25;;
6113;SDS011;3087;48.392;10.836;2023-06-14T06:50:35;6.07;;;4.68;;
6113;SDS011;3087;48.392;10.836;2023-06-14T06:53:01;7.18;;;5.03;;
6113;SDS011;3087;48.392;10.836;2023-06-14T06:55:27;8.32;;;4.90;;
6113;SDS011;3087;48.392;10.836;2023-06-14T06:57:52;7.03;;;6.28;;
6113;SDS011;3087;48.392;10.836;2023-06-14T07:00:19;7.75;;;6.15;;
6113;SDS011;3087;48.392;10.836;2023-06-14T07:02:45;7.15;;;5.40;;
6113;SDS011;3087;48.392;10.836;2023-06-14T07:05:11;7.95;;;4.75;;
6113;SDS011;3087;48.392;10.836;2023-06-14T07:07:37;8.82;;;5.28;;
6113;SDS011;3087;48.392;10.836;2023-06-14T07:10:03;8.13;;;5.05;;
6113;SDS011;3087;48.392;10.836;2023-06-14T07:12:33;8.07;;;5.25;;
6113;SDS011;3087;48.392;10.836;2023-06-14T07:15:04;9.18;;;5.85;;
6113;SDS011;3087;48.392;10.836;2023-06-14T07:17:36;7.63;;;4.93;;
6113;SDS011;3087;48.392;10.836;2023-06-14T07:20:02;8.20;;;4.75;;
6113;SDS011;3087;48.392;10.836;2023-06-14T07:22:33;9.93;;;5.35;;
6113;SDS011;3087;48.392;10.836;2023-06-14T07:25:00;8.30;;;4.25;;
6113;SDS011;3087;48.392;10.836;2023-06-14T07:27:25;11.10;;;4.97;;
6113;SDS011;3087;48.392;10.836;2023-06-14T07:29:51;6.05;;;4.40;;
6113;SDS011;3087;48.392;10.836;2023-06-14T07:32:16;6.97;;;5.13;;
6113;SDS011;3087;48.392;10.836;2023-06-14T07:34:42;7.63;;;4.78;;
6113;SDS011;3087;48.392;10.836;2023-06-14T07:37:07;7.63;;;4.45;;
6113;SDS011;3087;48.392;10.836;2023-06-14T07:39:33;10.93;;;4.65;;
6113;SDS011;3087;48.392;10.836;2023-06-14T07:42:02;6.10;;;5.28;;
6113;SDS011;3087;48.392;10.836;2023-06-14T07:44:30;7.57;;;4.25;;
6113;SDS011;3087;48.392;10.836;2023-06-14T07:46:58;5.85;;;4.55;;
6113;SDS011;3087;48.392;10.836;2023-06-14T07:49:24;9.60;;;4.35;;
6113;SDS011;3087;48.392;10.836;2023-06-14T07:51:50;6.88;;;3.95;;
6113;SDS011;3087;48.392;10.836;2023-06-14T07:54:16;5.72;;;4.10;;
6113;SDS011;3087;48.392;10.836;2023-06-14T07:56:42;5.18;;;4.68;;
6113;SDS011;3087;48.392;10.836;2023-06-14T07:59:08;6.43;;;4.05;;
6113;SDS011;3087;48.392;10.836;2023-06-14T08:01:34;5.05;;;4.10;;
6113;SDS011;3087;48.392;10.836;2023-06-14T08:04:00;7.32;;;3.97;;
6113;SDS011;3087;48.392;10.836;2023-06-14T08:06:26;5.20;;;4.07;;
6113;SDS011;3087;48.392;10.836;2023-06-14T08:08:52;6.10;;;4.00;;
6113;SDS011;3087;48.392;10.836;2023-06-14T08:11:17;6.90;;;4.90;;
6113;SDS011;3087;48.392;10.836;2023-06-14T08:13:43;6.50;;;5.53;;
6113;SDS011;3087;48.392;10.836;2023-06-14T08:16:09;6.60;;;4.03;;
6113;SDS011;3087;48.392;10.836;2023-06-14T08:18:35;7.20;;;4.68;;
6113;SDS011;3087;48.392;10.836;2023-06-14T08:21:01;5.75;;;3.60;;
6113;SDS011;3087;48.392;10.836;2023-06-14T08:23:27;9.05;;;3.70;;
6113;SDS011;3087;48.392;10.836;2023-06-14T08:25:53;4.47;;;4.03;;
6113;SDS011;3087;48.392;10.836;2023-06-14T08:28:19;7.63;;;3.85;;
6113;SDS011;3087;48.392;10.836;2023-06-14T08:30:45;5.82;;;3.88;;
6113;SDS011;3087;48.392;10.836;2023-06-14T08:33:11;7.60;;;4.10;;
6113;SDS011;3087;48.392;10.836;2023-06-14T08:35:36;7.07;;;4.20;;
6113;SDS011;3087;48.392;10.836;2023-06-14T08:38:03;6.20;;;3.88;;
6113;SDS011;3087;48.392;10.836;2023-06-14T08:40:29;7.57;;;4.60;;
6113;SDS011;3087;48.392;10.836;2023-06-14T08:42:55;4.88;;;3.83;;
6113;SDS011;3087;48.392;10.836;2023-06-14T08:45:23;5.05;;;3.78;;
6113;SDS011;3087;48.392;10.836;2023-06-14T08:47:50;5.13;;;3.60;;
6113;SDS011;3087;48.392;10.836;2023-06-14T08:50:22;6.97;;;3.90;;
6113;SDS011;3087;48.392;10.836;2023-06-14T08:52:51;5.03;;;4.00;;
6113;SDS011;3087;48.392;10.836;2023-06-14T08:55:23;4.43;;;3.72;;
6113;SDS011;3087;48.392;10.836;2023-06-14T08:57:53;10.15;;;3.95;;
6113;SDS011;3087;48.392;10.836;2023-06-14T09:00:19;4.95;;;3.95;;
6113;SDS011;3087;48.392;10.836;2023-06-14T09:02:46;10.40;;;4.00;;
6113;SDS011;3087;48.392;10.836;2023-06-14T09:05:14;13.35;;;4.07;;
6113;SDS011;3087;48.392;10.836;2023-06-14T09:07:43;6.50;;;3.65;;
6113;SDS011;3087;48.392;10.836;2023-06-14T09:10:10;4.82;;;3.55;;
6113;SDS011;3087;48.392;10.836;2023-06-14T09:12:37;4.53;;;3.65;;
6113;SDS011;3087;48.392;10.836;2023-06-14T09:15:03;7.95;;;3.83;;
6113;SDS011;3087;48.392;10.836;2023-06-14T09:17:36;4.50;;;4.00;;
6113;SDS011;3087;48.392;10.836;2023-06-14T09:20:02;5.03;;;4.15;;
6113;SDS011;3087;48.392;10.836;2023-06-14T09:22:31;7.72;;;3.58;;
6113;SDS011;3087;48.392;10.836;2023-06-14T09:25:00;10.23;;;4.40;;
6113;SDS011;3087;48.392;10.836;2023-06-14T09:27:26;4.80;;;3.70;;
6113;SDS011;3087;48.392;10.836;2023-06-14T09:29:53;4.75;;;3.65;;
6113;SDS011;3087;48.392;10.836;2023-06-14T09:32:18;9.13;;;4.22;;
6113;SDS011;3087;48.392;10.836;2023-06-14T09:34:45;4.70;;;3.80;;
6113;SDS011;3087;48.392;10.836;2023-06-14T09:37:11;6.65;;;3.85;;
6113;SDS011;3087;48.392;10.836;2023-06-14T09:39:49;4.70;;;3.53;;
6113;SDS011;3087;48.392;10.836;2023-06-14T09:42:16;5.72;;;4.40;;
6113;SDS011;3087;48.392;10.836;2023-06-14T09:44:48;9.27;;;3.65;;
6113;SDS011;3087;48.392;10.836;2023-06-14T09:47:15;12.80;;;5.78;;
6113;SDS011;3087;48.392;10.836;2023-06-14T09:49:41;8.20;;;4.50;;
6113;SDS011;3087;48.392;10.836;2023-06-14T09:52:08;7.03;;;4.38;;
6113;SDS011;3087;48.392;10.836;2023-06-14T09:54:37;7.35;;;3.67;;
6113;SDS011;3087;48.392;10.836;2023-06-14T09:57:07;7.13;;;4.18;;
6113;SDS011;3087;48.392;10.836;2023-06-14T09:59:39;5.72;;;3.92;;
6113;SDS011;3087;48.392;10.836;2023-06-14T10:02:09;5.75;;;4.47;;
6113;SDS011;3087;48.392;10.836;2023-06-14T10:04:43;12.18;;;4.43;;
6113;SDS011;3087;48.392;10.836;2023-06-14T10:07:16;12.30;;;5.60;;
6113;SDS011;3087;48.392;10.836;2023-06-14T10:09:45;5.88;;;3.70;;
6113;SDS011;3087;48.392;10.836;2023-06-14T10:12:15;9.13;;;4.68;;
6113;SDS011;3087;48.392;10.836;2023-06-14T10:14:46;6.13;;;3.90;;
6113;SDS011;3087;48.392;10.836;2023-06-14T10:17:35;4.28;;;3.83;;
6113;SDS011;3087;48.392;10.836;2023-06-14T10:22:44;4.35;;;3.40;;
6113;SDS011;3087;48.392;10.836;2023-06-14T10:25:29;5.35;;;4.05;;
6113;SDS011;3087;48.392;10.836;2023-06-14T10:28:03;6.10;;;3.50;;
6113;SDS011;3087;48.392;10.836;2023-06-14T10:31:00;5.35;;;4.25;;
6113;SDS011;3087;48.392;10.836;2023-06-14T10:33:30;4.00;;;3.55;;
6113;SDS011;3087;48.392;10.836;2023-06-14T10:38:36;3.75;;;3.05;;
6113;SDS011;3087;48.392;10.836;2023-06-14T10:41:03;4.50;;;3.53;;
6113;SDS011;3087;48.392;10.836;2023-06-14T10:43:30;9.82;;;4.28;;
6113;SDS011;3087;48.392;10.836;2023-06-14T10:46:17;10.50;;;4.18;;
6113;SDS011;3087;48.392;10.836;2023-06-14T10:48:46;6.53;;;3.75;;
6113;SDS011;3087;48.392;10.836;2023-06-14T10:51:19;4.07;;;3.45;;
6113;SDS011;3087;48.392;10.836;2023-06-14T10:53:46;7.82;;;4.43;;
6113;SDS011;3087;48.392;10.836;2023-06-14T11:04:17;5.43;;;3.90;;
6113;SDS011;3087;48.392;10.836;2023-06-14T11:06:49;4.60;;;3.60;;
6113;SDS011;3087;48.392;10.836;2023-06-14T11:11:53;5.05;;;4.10;;
6113;SDS011;3087;48.392;10.836;2023-06-14T11:14:21;5.45;;;4.60;;
6113;SDS011;3087;48.392;10.836;2023-06-14T11:16:50;4.60;;;4.20;;
6113;SDS011;3087;48.392;10.836;2023-06-14T11:19:15;4.20;;;3.75;;
6113;SDS011;3087;48.392;10.836;2023-06-14T11:21:42;6.40;;;5.43;;
6113;SDS011;3087;48.392;10.836;2023-06-14T11:24:11;6.55;;;5.05;;
6113;SDS011;3087;48.392;10.836;2023-06-14T11:26:37;8.38;;;4.30;;
6113;SDS011;3087;48.392;10.836;2023-06-14T11:29:03;6.32;;;4.38;;
6113;SDS011;3087;48.392;10.836;2023-06-14T11:31:29;4.55;;;4.05;;
6113;SDS011;3087;48.392;10.836;2023-06-14T11:33:56;5.63;;;5.07;;
6113;SDS011;3087;48.392;10.836;2023-06-14T11:36:23;5.72;;;3.92;;
6113;SDS011;3087;48.392;10.836;2023-06-14T11:38:57;5.65;;;4.10;;
6113;SDS011;3087;48.392;10.836;2023-06-14T11:44:07;4.03;;;3.60;;
6113;SDS011;3087;48.392;10.836;2023-06-14T11:46:33;8.02;;;4.20;;
6113;SDS011;3087;48.392;10.836;2023-06-14T11:48:59;4.88;;;3.40;;
6113;SDS011;3087;48.392;10.836;2023-06-14T11:51:28;9.32;;;5.40;;
6113;SDS011;3087;48.392;10.836;2023-06-14T11:53:55;8.45;;;6.05;;
6113;SDS011;3087;48.392;10.836;2023-06-14T11:56:21;6.43;;;5.53;;
6113;SDS011;3087;48.392;10.836;2023-06-14T11:58:47;4.13;;;3.42;;
6113;SDS011;3087;48.392;10.836;2023-06-14T12:01:19;6.20;;;3.25;;
6113;SDS011;3087;48.392;10.836;2023-06-14T12:03:48;4.45;;;3.60;;
6113;SDS011;3087;48.392;10.836;2023-06-14T12:06:15;5.40;;;4.85;;
6113;SDS011;3087;48.392;10.836;2023-06-14T12:08:43;6.18;;;5.57;;
6113;SDS011;3087;48.392;10.836;2023-06-14T12:11:10;5.30;;;3.85;;
6113;SDS011;3087;48.392;10.836;2023-06-14T12:13:38;5.35;;;3.88;;
6113;SDS011;3087;48.392;10.836;2023-06-14T12:16:06;5.20;;;3.63;;
6113;SDS011;3087;48.392;10.836;2023-06-14T12:18:36;7.47;;;5.90;;
6113;SDS011;3087;48.392;10.836;2023-06-14T12:21:07;4.80;;;4.30;;
6113;SDS011;3087;48.392;10.836;2023-06-14T12:23:43;7.15;;;3.83;;
6113;SDS011;3087;48.392;10.836;2023-06-14T12:26:17;6.32;;;4.53;;
6113;SDS011;3087;48.392;10.836;2023-06-14T12:28:45;7.75;;;3.78;;
6113;SDS011;3087;48.392;10.836;2023-06-14T12:31:12;4.43;;;4.00;;
6113;SDS011;3087;48.392;10.836;2023-06-14T12:33:39;7.90;;;3.90;;
6113;SDS011;3087;48.392;10.836;2023-06-14T12:36:06;5.13;;;3.42;;
6113;SDS011;3087;48.392;10.836;2023-06-14T12:38:33;4.10;;;3.80;;
6113;SDS011;3087;48.392;10.836;2023-06-14T12:40:58;6.53;;;3.92;;
6113;SDS011;3087;48.392;10.836;2023-06-14T12:43:25;4.25;;;3.60;;
6113;SDS011;3087;48.392;10.836;2023-06-14T12:45:51;4.75;;;4.05;;
6113;SDS011;3087;48.392;10.836;2023-06-14T12:48:16;5.15;;;4.15;;
6113;SDS011;3087;48.392;10.836;2023-06-14T12:50:42;6.50;;;5.25;;
6113;SDS011;3087;48.392;10.836;2023-06-14T12:53:08;6.85;;;4.22;;
6113;SDS011;3087;48.392;10.836;2023-06-14T12:55:34;8.80;;;6.90;;
6113;SDS011;3087;48.392;10.836;2023-06-14T12:57:59;6.28;;;4.10;;
6113;SDS011;3087;48.392;10.836;2023-06-14T13:00:25;4.95;;;4.00;;
6113;SDS011;3087;48.392;10.836;2023-06-14T13:02:51;11.32;;;4.60;;
6113;SDS011;3087;48.392;10.836;2023-06-14T13:05:17;4.60;;;3.67;;
6113;SDS011;3087;48.392;10.836;2023-06-14T13:07:43;8.32;;;4.05;;
6113;SDS011;3087;48.392;10.836;2023-06-14T13:10:09;6.50;;;4.72;;
6113;SDS011;3087;48.392;10.836;2023-06-14T13:12:35;8.70;;;3.85;;
6113;SDS011;3087;48.392;10.836;2023-06-14T13:15:01;5.40;;;4.90;;
6113;SDS011;3087;48.392;10.836;2023-06-14T13:17:27;9.05;;;6.85;;
6113;SDS011;3087;48.392;10.836;2023-06-14T13:19:52;9.63;;;5.30;;
6113;SDS011;3087;48.392;10.836;2023-06-14T13:22:18;6.00;;;4.85;;
6113;SDS011;3087;48.392;10.836;2023-06-14T13:24:44;9.43;;;3.95;;
6113;SDS011;3087;48.392;10.836;2023-06-14T13:27:09;7.03;;;3.97;;
6113;SDS011;3087;48.392;10.836;2023-06-14T13:29:35;5.97;;;4.68;;
6113;SDS011;3087;48.392;10.836;2023-06-14T13:32:02;5.97;;;4.55;;
6113;SDS011;3087;48.392;10.836;2023-06-14T13:34:28;8.15;;;7.30;;
6113;SDS011;3087;48.392;10.836;2023-06-14T13:36:54;5.25;;;3.80;;
6113;SDS011;3087;48.392;10.836;2023-06-14T13:39:21;7.65;;;6.15;;
6113;SDS011;3087;48.392;10.836;2023-06-14T13:41:47;8.27;;;4.63;;
6113;SDS011;3087;48.392;10.836;2023-06-14T13:44:13;4.30;;;3.67;;
6113;SDS011;3087;48.392;10.836;2023-06-14T13:46:40;5.35;;;4.20;;
6113;SDS011;3087;48.392;10.836;2023-06-14T13:49:07;6.38;;;4.15;;
6113;SDS011;3087;48.392;10.836;2023-06-14T13:51:33;4.45;;;3.97;;
6113;SDS011;3087;48.392;10.836;2023-06-14T13:53:59;10.98;;;4.00;;
6113;SDS011;3087;48.392;10.836;2023-06-14T13:56:26;5.18;;;4.20;;
6113;SDS011;3087;48.392;10.836;2023-06-14T13:58:51;6.78;;;3.83;;
6113;SDS011;3087;48.392;10.836;2023-06-14T14:01:18;6.90;;;4.13;;
6113;SDS011;3087;48.392;10.836;2023-06-14T14:03:45;4.78;;;3.65;;
6113;SDS011;3087;48.392;10.836;2023-06-14T14:06:11;4.85;;;4.35;;
6113;SDS011;3087;48.392;10.836;2023-06-14T14:08:38;6.30;;;3.63;;
6113;SDS011;3087;48.392;10.836;2023-06-14T14:11:04;7.00;;;4.38;;
6113;SDS011;3087;48.392;10.836;2023-06-14T14:13:31;4.60;;;4.18;;
6113;SDS011;3087;48.392;10.836;2023-06-14T14:15:56;6.68;;;4.30;;
6113;SDS011;3087;48.392;10.836;2023-06-14T14:18:22;4.20;;;3.80;;
6113;SDS011;3087;48.392;10.836;2023-06-14T14:20:48;4.25;;;3.45;;
6113;SDS011;3087;48.392;10.836;2023-06-14T14:23:14;6.53;;;3.90;;
6113;SDS011;3087;48.392;10.836;2023-06-14T14:25:40;6.50;;;3.95;;
6113;SDS011;3087;48.392;10.836;2023-06-14T14:28:05;6.47;;;3.95;;
6113;SDS011;3087;48.392;10.836;2023-06-14T14:30:31;11.73;;;4.43;;
6113;SDS011;3087;48.392;10.836;2023-06-14T14:32:57;6.32;;;3.47;;
6113;SDS011;3087;48.392;10.836;2023-06-14T14:35:23;4.45;;;4.05;;
6113;SDS011;3087;48.392;10.836;2023-06-14T14:37:51;7.93;;;3.85;;
6113;SDS011;3087;48.392;10.836;2023-06-14T14:40:16;5.72;;;4.70;;
6113;SDS011;3087;48.392;10.836;2023-06-14T14:42:42;5.65;;;4.50;;
6113;SDS011;3087;48.392;10.836;2023-06-14T14:45:08;6.55;;;4.15;;
6113;SDS011;3087;48.392;10.836;2023-06-14T14:47:34;4.57;;;4.10;;
6113;SDS011;3087;48.392;10.836;2023-06-14T14:49:59;4.22;;;3.83;;
6113;SDS011;3087;48.392;10.836;2023-06-14T14:52:26;6.10;;;3.97;;
6113;SDS011;3087;48.392;10.836;2023-06-14T14:54:51;6.70;;;3.58;;
6113;SDS011;3087;48.392;10.836;2023-06-14T14:57:18;4.50;;;4.05;;
6113;SDS011;3087;48.392;10.836;2023-06-14T14:59:43;6.38;;;3.67;;
6113;SDS011;3087;48.392;10.836;2023-06-14T15:02:09;6.00;;;4.85;;
6113;SDS011;3087;48.392;10.836;2023-06-14T15:04:35;3.78;;;3.47;;
6113;SDS011;3087;48.392;10.836;2023-06-14T15:07:01;5.30;;;3.80;;
6113;SDS011;3087;48.392;10.836;2023-06-14T15:09:26;8.65;;;4.40;;
6113;SDS011;3087;48.392;10.836;2023-06-14T15:11:52;7.25;;;4.00;;
6113;SDS011;3087;48.392;10.836;2023-06-14T15:14:17;5.22;;;3.88;;
6113;SDS011;3087;48.392;10.836;2023-06-14T15:16:43;4.70;;;3.85;;
6113;SDS011;3087;48.392;10.836;2023-06-14T15:19:09;6.28;;;3.70;;
6113;SDS011;3087;48.392;10.836;2023-06-14T15:21:35;4.10;;;3.70;;